createdAt,value
2023-05-01T00:00:48.022Z,0.00
2023-05-01T00:01:48.020Z,0.00
2023-05-01T00:02:48.246Z,0.00
2023-05-01T00:04:48.169Z,0.00
2023-05-01T00:09:48.426Z,0.00
2023-05-01T00:10:50.388Z,0.00
2023-05-01T00:12:49.228Z,0.00
2023-05-01T00:29:49.379Z,0.00
2023-05-01T00:50:50.160Z,0.00
2023-05-01T01:00:39.973Z,0.00
2023-05-01T01:03:20.959Z,0.00
2023-05-01T01:04:19.807Z,0.00
2023-05-01T01:05:19.995Z,0.00
2023-05-01T01:06:20.263Z,0.00
2023-05-01T01:09:20.105Z,0.00
2023-05-01T01:11:21.252Z,0.00
2023-05-01T01:13:20.717Z,0.00
2023-05-01T01:14:20.945Z,0.00
2023-05-01T01:17:21.230Z,0.00
2023-05-01T01:21:20.731Z,0.00
2023-05-01T01:22:20.564Z,0.00
2023-05-01T01:23:20.987Z,0.00
2023-05-01T01:32:21.538Z,0.00
2023-05-01T01:33:23.782Z,0.00
2023-05-01T01:43:22.150Z,0.00
2023-05-01T01:46:21.128Z,0.00
2023-05-01T01:48:21.368Z,0.00
2023-05-01T02:36:22.266Z,0.00
2023-05-01T02:37:22.272Z,0.00
2023-05-01T02:38:22.298Z,0.00
2023-05-01T02:39:22.496Z,0.00
2023-05-01T02:40:22.375Z,0.00
2023-05-01T02:42:22.403Z,0.00
2023-05-01T02:43:22.432Z,0.00
2023-05-01T02:44:22.464Z,0.00
2023-05-01T02:45:22.495Z,0.00
2023-05-01T02:46:22.638Z,0.00
2023-05-01T02:47:22.674Z,0.00
2023-05-01T02:48:22.565Z,0.00
2023-05-01T02:49:22.595Z,0.00
2023-05-01T02:50:22.623Z,0.00
2023-05-01T02:51:22.660Z,0.00
2023-05-01T02:52:22.699Z,0.00
2023-05-01T02:53:22.702Z,0.00
2023-05-01T02:54:22.738Z,0.00
2023-05-01T02:55:22.759Z,0.00
2023-05-01T02:56:22.786Z,0.00
2023-05-01T02:57:22.822Z,0.00
2023-05-01T02:58:22.838Z,0.00
2023-05-01T02:59:22.865Z,0.00
2023-05-01T03:00:22.898Z,0.00
2023-05-01T03:01:22.958Z,0.00
2023-05-01T03:02:22.946Z,0.00
2023-05-01T03:03:23.111Z,0.00
2023-05-01T03:04:23.077Z,0.00
2023-05-01T03:05:23.041Z,0.00
2023-05-01T03:06:23.128Z,0.00
2023-05-01T03:07:23.091Z,0.00
2023-05-01T03:08:23.126Z,0.00
2023-05-01T03:09:23.669Z,0.00
2023-05-01T03:10:23.379Z,0.00
2023-05-01T03:12:24.129Z,0.00
2023-05-01T03:13:23.672Z,0.00
2023-05-01T03:14:23.488Z,0.00
2023-05-01T03:39:29.085Z,0.00
2023-05-01T03:41:29.440Z,4.00
2023-05-01T03:50:34.760Z,20.00
2023-05-01T03:57:36.656Z,44.00
2023-05-01T04:00:33.301Z,64.00
2023-05-01T04:07:32.380Z,120.00
2023-05-01T04:11:03.470Z,160.00
2023-05-01T04:12:03.698Z,172.00
2023-05-01T04:13:05.180Z,188.00
2023-05-01T04:14:04.173Z,208.00
2023-05-01T04:16:03.851Z,252.00
2023-05-01T04:17:03.622Z,276.00
2023-05-01T04:18:46.216Z,328.00
2023-05-01T04:19:47.154Z,364.00
2023-05-01T04:21:46.289Z,440.00
2023-05-01T04:22:46.305Z,480.00
2023-05-01T04:24:46.352Z,560.00
2023-05-01T04:26:54.198Z,636.00
2023-05-01T04:27:54.215Z,660.00
2023-05-01T04:32:25.192Z,748.00
2023-05-01T04:33:24.984Z,768.00
2023-05-01T04:35:18.979Z,816.00
2023-05-01T04:36:17.581Z,848.00
2023-05-01T04:37:17.832Z,884.00
2023-05-01T04:38:17.639Z,920.00
2023-05-01T04:39:17.672Z,964.00
2023-05-01T04:41:18.638Z,1024.00
2023-05-01T04:42:17.745Z,1048.00
2023-05-01T04:43:18.365Z,1064.00
2023-05-01T04:44:17.987Z,1072.00
2023-05-01T04:45:18.013Z,1084.00
2023-05-01T04:46:17.875Z,1100.00
2023-05-01T04:47:17.863Z,1120.00
2023-05-01T04:48:17.949Z,1144.00
2023-05-01T04:49:17.918Z,1176.00
2023-05-01T04:50:17.945Z,1212.00
2023-05-01T04:51:17.977Z,1256.00
2023-05-01T04:52:17.993Z,1296.00
2023-05-01T04:53:18.019Z,1348.00
2023-05-01T04:54:18.049Z,1400.00
2023-05-01T04:55:18.094Z,1448.00
2023-05-01T04:56:18.097Z,1508.00
2023-05-01T04:57:18.125Z,1560.00
2023-05-01T04:58:18.159Z,1612.00
2023-05-01T04:59:18.177Z,1668.00
2023-05-01T05:00:18.205Z,1720.00
2023-05-01T05:01:18.278Z,1776.00
2023-05-01T05:02:18.282Z,1836.00
2023-05-01T05:03:18.367Z,1892.00
2023-05-01T05:04:18.333Z,1948.00
2023-05-01T05:05:18.340Z,2000.00
2023-05-01T05:06:18.403Z,2060.00
2023-05-01T05:07:18.404Z,2128.00
2023-05-01T05:08:18.438Z,2204.00
2023-05-01T05:09:20.173Z,2284.00
2023-05-01T05:10:18.476Z,2364.00
2023-05-01T05:11:18.499Z,2448.00
2023-05-01T05:12:18.526Z,2540.00
2023-05-01T05:13:18.552Z,2624.00
2023-05-01T05:14:18.582Z,2724.00
2023-05-01T05:15:18.615Z,2828.00
2023-05-01T05:16:18.709Z,2932.00
2023-05-01T05:17:18.660Z,3048.00
2023-05-01T05:18:18.734Z,3176.00
2023-05-01T05:19:18.717Z,3316.00
2023-05-01T05:20:18.765Z,3472.00
2023-05-01T05:21:18.783Z,3640.00
2023-05-01T05:22:18.796Z,3816.00
2023-05-01T05:23:18.825Z,3976.00
2023-05-01T05:24:18.855Z,4116.00
2023-05-01T05:25:18.879Z,4224.00
2023-05-01T05:26:18.904Z,4300.00
2023-05-01T05:27:18.928Z,4352.00
2023-05-01T05:28:18.959Z,4380.00
2023-05-01T05:29:18.984Z,4396.00
2023-05-01T05:30:19.019Z,4408.00
2023-05-01T05:31:19.036Z,4412.00
2023-05-01T05:32:19.217Z,4408.00
2023-05-01T05:33:19.471Z,4400.00
2023-05-01T05:34:19.120Z,4400.00
2023-05-01T05:35:19.154Z,4416.00
2023-05-01T05:36:19.205Z,4444.00
2023-05-01T05:37:19.216Z,4480.00
2023-05-01T05:38:19.382Z,4532.00
2023-05-01T05:43:02.770Z,4944.00
2023-05-01T05:44:02.798Z,5040.00
2023-05-01T05:45:02.827Z,5140.00
2023-05-01T05:46:02.882Z,5240.00
2023-05-01T05:47:02.881Z,5356.00
2023-05-01T05:48:03.101Z,5500.00
2023-05-01T05:49:02.934Z,5668.00
2023-05-01T05:50:02.973Z,5844.00
2023-05-01T05:51:02.992Z,6016.00
2023-05-01T05:52:03.040Z,6192.00
2023-05-01T06:02:31.729Z,6824.00
2023-05-01T06:03:31.874Z,6672.00
2023-05-01T06:04:31.701Z,6620.00
2023-05-01T06:05:31.772Z,6664.00
2023-05-01T06:06:31.771Z,6580.00
2023-05-01T06:07:31.805Z,6584.00
2023-05-01T06:08:31.812Z,6156.00
2023-05-01T06:09:31.843Z,5996.00
2023-05-01T06:10:31.866Z,5864.00
2023-05-01T06:12:19.460Z,5680.00
2023-05-01T06:13:19.488Z,5552.00
2023-05-01T06:14:19.516Z,5488.00
2023-05-01T06:15:19.542Z,5448.00
2023-05-01T06:16:19.592Z,5440.00
2023-05-01T06:17:19.606Z,5432.00
2023-05-01T06:18:19.684Z,5456.00
2023-05-01T06:19:19.657Z,5492.00
2023-05-01T06:20:19.685Z,5544.00
2023-05-01T06:22:52.403Z,5720.00
2023-05-01T06:23:52.451Z,5808.00
2023-05-01T06:24:52.446Z,5884.00
2023-05-01T06:25:52.469Z,5908.00
2023-05-01T06:26:52.495Z,5876.00
2023-05-01T06:27:52.527Z,5816.00
2023-05-01T06:28:52.576Z,5720.00
2023-05-01T06:29:52.582Z,5628.00
2023-05-01T06:30:52.778Z,5552.00
2023-05-01T06:31:52.724Z,5480.00
2023-05-01T06:32:52.943Z,5420.00
2023-05-01T06:33:53.310Z,5408.00
2023-05-01T06:34:52.718Z,5440.00
2023-05-01T06:35:52.748Z,5508.00
2023-05-01T06:36:52.777Z,5568.00
2023-05-01T06:37:52.806Z,5620.00
2023-05-01T06:38:52.851Z,5660.00
2023-05-01T06:39:52.865Z,5680.00
2023-05-01T06:40:52.890Z,5672.00
2023-05-01T06:41:52.938Z,5624.00
2023-05-01T06:42:52.945Z,5568.00
2023-05-01T06:43:52.975Z,5480.00
2023-05-01T06:44:52.997Z,5384.00
2023-05-01T06:45:53.031Z,5292.00
2023-05-01T06:46:53.116Z,5208.00
2023-05-01T06:47:53.160Z,5144.00
2023-05-01T06:48:53.122Z,5132.00
2023-05-01T06:49:53.157Z,5180.00
2023-05-01T06:50:53.174Z,5284.00
2023-05-01T06:51:53.203Z,5436.00
2023-05-01T06:52:53.233Z,5608.00
2023-05-01T06:53:53.260Z,5792.00
2023-05-01T06:54:53.304Z,5984.00
2023-05-01T06:55:53.415Z,6208.00
2023-05-01T06:56:53.349Z,6480.00
2023-05-01T06:57:53.370Z,6764.00
2023-05-01T06:58:53.400Z,7028.00
2023-05-01T06:59:53.459Z,7216.00
2023-05-01T07:00:53.552Z,7344.00
2023-05-01T07:01:53.525Z,7420.00
2023-05-01T07:02:53.698Z,7464.00
2023-05-01T07:03:53.548Z,7484.00
2023-05-01T07:04:53.571Z,7472.00
2023-05-01T07:05:53.597Z,7440.00
2023-05-01T07:06:53.687Z,7404.00
2023-05-01T07:08:01.230Z,7380.00
2023-05-01T07:08:53.692Z,7360.00
2023-05-01T07:09:53.748Z,7344.00
2023-05-01T07:10:53.764Z,7304.00
2023-05-01T07:11:53.777Z,7260.00
2023-05-01T07:12:53.805Z,7248.00
2023-05-01T07:13:53.834Z,7364.00
2023-05-01T07:14:53.861Z,7592.00
2023-05-01T07:15:54.675Z,7936.00
2023-05-01T07:16:54.019Z,8344.00
2023-05-01T07:17:53.980Z,8840.00
2023-05-01T07:18:53.977Z,9360.00
2023-05-01T07:19:54.124Z,9980.00
2023-05-01T07:20:54.038Z,10764.00
2023-05-01T07:21:54.065Z,11256.00
2023-05-01T07:22:54.092Z,11648.00
2023-05-01T07:25:01.732Z,13496.00
2023-05-01T07:26:01.785Z,14440.00
2023-05-01T07:27:01.798Z,13956.00
2023-05-01T07:28:01.840Z,13512.00
2023-05-01T07:29:01.848Z,13756.00
2023-05-01T07:30:01.877Z,14156.00
2023-05-01T07:31:01.904Z,14624.00
2023-05-01T07:32:05.404Z,15176.00
2023-05-01T07:34:01.994Z,15776.00
2023-05-01T07:35:02.020Z,15668.00
2023-05-01T07:36:02.050Z,15716.00
2023-05-01T07:37:02.112Z,16864.00
2023-05-01T07:38:02.104Z,17600.00
2023-05-01T07:39:02.154Z,18912.00
2023-05-01T07:40:02.173Z,18144.00
2023-05-01T07:41:02.208Z,15572.00
2023-05-01T07:42:02.248Z,14924.00
2023-05-01T07:43:02.275Z,14116.00
2023-05-01T07:44:02.297Z,13216.00
2023-05-01T07:45:59.926Z,12072.00
2023-05-01T07:46:59.927Z,11580.00
2023-05-01T07:48:00.002Z,11168.00
2023-05-01T07:48:59.986Z,10964.00
2023-05-01T07:50:00.026Z,10804.00
2023-05-01T07:51:00.050Z,10732.00
2023-05-01T07:52:00.082Z,10612.00
2023-05-01T07:53:00.147Z,10552.00
2023-05-01T07:54:00.154Z,10612.00
2023-05-01T07:55:42.718Z,10912.00
2023-05-01T07:56:42.750Z,11540.00
2023-05-01T07:57:42.795Z,13396.00
2023-05-01T07:58:42.816Z,14152.00
2023-05-01T07:59:42.835Z,12116.00
2023-05-01T08:00:42.871Z,11780.00
2023-05-01T08:01:42.913Z,11840.00
2023-05-01T08:02:42.990Z,12064.00
2023-05-01T08:03:43.046Z,13524.00
2023-05-01T08:04:42.997Z,12856.00
2023-05-01T08:05:43.019Z,12536.00
2023-05-01T08:06:43.096Z,12408.00
2023-05-01T08:07:43.083Z,12368.00
2023-05-01T08:08:43.111Z,12888.00
2023-05-01T08:09:43.138Z,12056.00
2023-05-01T08:10:43.185Z,11868.00
2023-05-01T08:11:43.197Z,12660.00
2023-05-01T08:12:43.246Z,11516.00
2023-05-01T08:13:43.286Z,11420.00
2023-05-01T08:14:43.304Z,11892.00
2023-05-01T08:15:43.346Z,11004.00
2023-05-01T08:16:43.480Z,10816.00
2023-05-01T08:17:43.445Z,10652.00
2023-05-01T08:18:43.418Z,10528.00
2023-05-01T08:19:43.442Z,10400.00
2023-05-01T08:20:43.473Z,10316.00
2023-05-01T08:21:43.512Z,10388.00
2023-05-01T08:22:43.539Z,10616.00
2023-05-01T08:23:43.567Z,10884.00
2023-05-01T08:24:43.593Z,11164.00
2023-05-01T08:25:43.644Z,11504.00
2023-05-01T08:26:43.677Z,12020.00
2023-05-01T08:27:43.686Z,13148.00
2023-05-01T08:28:43.732Z,13376.00
2023-05-01T08:29:43.970Z,17120.00
2023-05-01T08:31:36.401Z,18976.00
2023-05-01T08:32:36.410Z,12400.00
2023-05-01T08:33:36.420Z,12092.00
2023-05-01T08:34:36.445Z,12000.00
2023-05-01T08:35:36.469Z,12052.00
2023-05-01T08:36:36.503Z,12180.00
2023-05-01T08:37:36.533Z,12868.00
2023-05-01T08:38:36.567Z,12952.00
2023-05-01T08:39:36.593Z,13136.00
2023-05-01T08:40:36.625Z,12700.00
2023-05-01T08:41:36.658Z,12836.00
2023-05-01T08:42:36.691Z,13084.00
2023-05-01T08:43:36.714Z,13612.00
2023-05-01T08:44:36.754Z,13780.00
2023-05-01T08:45:36.798Z,13996.00
2023-05-01T08:46:36.864Z,14964.00
2023-05-01T08:47:36.943Z,15516.00
2023-05-01T08:48:36.919Z,15288.00
2023-05-01T08:49:36.907Z,14580.00
2023-05-01T08:50:36.953Z,13988.00
2023-05-01T08:51:37.007Z,13484.00
2023-05-01T08:52:37.030Z,13088.00
2023-05-01T08:53:37.033Z,12856.00
2023-05-01T08:54:37.075Z,12972.00
2023-05-01T08:55:37.085Z,13432.00
2023-05-01T08:56:37.116Z,14636.00
2023-05-01T08:57:37.142Z,15908.00
2023-05-01T08:58:37.173Z,14428.00
2023-05-01T08:59:37.213Z,14688.00
2023-05-01T09:00:37.238Z,14940.00
2023-05-01T09:01:37.340Z,14808.00
2023-05-01T09:02:37.330Z,15388.00
2023-05-01T09:03:37.368Z,14856.00
2023-05-01T09:04:37.362Z,14820.00
2023-05-01T09:05:37.392Z,14692.00
2023-05-01T09:06:37.498Z,14416.00
2023-05-01T09:07:37.465Z,14124.00
2023-05-01T09:08:37.500Z,13860.00
2023-05-01T09:09:37.535Z,13716.00
2023-05-01T09:10:37.564Z,13644.00
2023-05-01T09:11:37.590Z,13560.00
2023-05-01T09:12:37.638Z,13312.00
2023-05-01T09:13:37.656Z,12848.00
2023-05-01T09:14:37.673Z,12480.00
2023-05-01T09:15:37.708Z,12336.00
2023-05-01T09:16:37.764Z,13792.00
2023-05-01T09:17:37.847Z,14692.00
2023-05-01T09:18:37.800Z,15508.00
2023-05-01T09:19:38.427Z,15012.00
2023-05-01T09:20:37.853Z,15236.00
2023-05-01T09:21:37.880Z,15736.00
2023-05-01T09:22:37.922Z,15852.00
2023-05-01T09:23:37.948Z,15872.00
2023-05-01T09:24:37.980Z,16288.00
2023-05-01T09:25:38.020Z,16608.00
2023-05-01T09:26:38.074Z,17216.00
2023-05-01T09:27:38.273Z,17056.00
2023-05-01T09:28:38.105Z,16832.00
2023-05-01T09:29:38.145Z,16112.00
2023-05-01T09:30:38.218Z,15448.00
2023-05-01T09:31:38.240Z,15196.00
2023-05-01T09:32:39.676Z,16992.00
2023-05-01T09:33:38.277Z,16672.00
2023-05-01T09:34:38.303Z,19136.00
2023-05-01T09:35:38.737Z,15864.00
2023-05-01T09:36:38.358Z,15668.00
2023-05-01T09:37:38.399Z,15760.00
2023-05-01T09:38:38.416Z,16544.00
2023-05-01T09:39:38.447Z,17920.00
2023-05-01T09:40:38.481Z,18944.00
2023-05-01T09:41:38.515Z,16152.00
2023-05-01T09:42:38.588Z,15964.00
2023-05-01T09:43:38.577Z,15780.00
2023-05-01T09:44:38.612Z,15752.00
2023-05-01T09:45:38.711Z,15444.00
2023-05-01T09:47:51.398Z,15712.00
2023-05-01T09:48:51.415Z,15880.00
2023-05-01T09:49:51.425Z,16768.00
2023-05-01T09:50:51.454Z,15652.00
2023-05-01T09:51:51.492Z,21184.00
2023-05-01T09:52:51.534Z,22816.00
2023-05-01T09:53:51.551Z,16448.00
2023-05-01T09:54:51.591Z,17472.00
2023-05-01T09:55:51.627Z,14264.00
2023-05-01T09:56:51.656Z,15576.00
2023-05-01T09:57:51.686Z,14508.00
2023-05-01T09:58:51.724Z,14948.00
2023-05-01T09:59:51.752Z,13792.00
2023-05-01T10:00:51.938Z,15300.00
2023-05-01T10:01:51.849Z,15124.00
2023-05-01T10:02:51.887Z,13792.00
2023-05-01T10:03:51.951Z,12832.00
2023-05-01T10:04:51.973Z,12644.00
2023-05-01T10:05:51.949Z,12716.00
2023-05-01T10:06:52.087Z,13252.00
2023-05-01T10:07:52.014Z,12496.00
2023-05-01T10:08:52.049Z,12720.00
2023-05-01T10:09:52.081Z,12220.00
2023-05-01T10:10:52.116Z,12372.00
2023-05-01T10:11:52.224Z,12420.00
2023-05-01T10:12:52.199Z,12680.00
2023-05-01T10:13:52.208Z,12596.00
2023-05-01T10:14:52.255Z,13324.00
2023-05-01T10:15:52.276Z,14180.00
2023-05-01T10:16:52.338Z,13732.00
2023-05-01T10:17:52.518Z,14424.00
2023-05-01T10:18:52.372Z,13056.00
2023-05-01T10:19:52.403Z,12632.00
2023-05-01T10:20:52.466Z,11896.00
2023-05-01T10:21:52.481Z,11092.00
2023-05-01T10:22:52.502Z,10688.00
2023-05-01T10:23:52.533Z,10736.00
2023-05-01T10:24:52.594Z,11136.00
2023-05-01T10:25:52.628Z,12016.00
2023-05-01T10:26:52.638Z,14284.00
2023-05-01T10:27:52.667Z,13760.00
2023-05-01T10:28:52.741Z,14804.00
2023-05-01T10:29:52.729Z,14640.00
2023-05-01T10:30:52.815Z,14952.00
2023-05-01T10:31:53.138Z,14228.00
2023-05-01T10:32:52.919Z,17152.00
2023-05-01T10:33:52.858Z,14076.00
2023-05-01T10:34:52.890Z,15252.00
2023-05-01T10:35:52.925Z,16256.00
2023-05-01T10:36:52.977Z,16192.00
2023-05-01T10:37:52.990Z,15904.00
2023-05-01T10:38:53.026Z,15616.00
2023-05-01T10:39:53.079Z,15176.00
2023-05-01T10:40:53.696Z,14716.00
2023-05-01T10:41:56.378Z,14532.00
2023-05-01T10:42:54.571Z,14048.00
2023-05-01T10:43:53.414Z,14128.00
2023-05-01T10:45:45.804Z,14036.00
2023-05-01T10:46:48.564Z,13680.00
2023-05-01T10:47:45.909Z,12188.00
2023-05-01T10:48:45.899Z,12448.00
2023-05-01T10:49:45.928Z,12712.00
2023-05-01T10:50:45.961Z,12112.00
2023-05-01T10:51:45.993Z,10308.00
2023-05-01T10:52:46.048Z,10020.00
2023-05-01T10:53:46.118Z,11104.00
2023-05-01T10:54:46.111Z,10708.00
2023-05-01T10:55:46.128Z,11328.00
2023-05-01T10:57:28.714Z,8696.00
2023-05-01T10:58:28.766Z,8976.00
2023-05-01T10:59:28.796Z,8960.00
2023-05-01T11:00:28.816Z,9504.00
2023-05-01T11:01:28.891Z,7948.00
2023-05-01T11:02:28.985Z,7524.00
2023-05-01T11:03:28.918Z,7812.00
2023-05-01T11:04:28.951Z,8640.00
2023-05-01T11:05:37.990Z,8388.00
2023-05-01T11:06:29.230Z,8636.00
2023-05-01T11:07:29.273Z,8992.00
2023-05-01T11:10:29.390Z,10492.00
2023-05-01T11:11:29.402Z,10392.00
2023-05-01T11:15:29.563Z,10020.00
2023-05-01T11:19:29.573Z,10044.00
2023-05-01T11:20:29.494Z,10180.00
2023-05-01T11:21:29.518Z,10352.00
2023-05-01T11:22:29.547Z,10396.00
2023-05-01T11:23:29.583Z,10580.00
2023-05-01T11:24:29.613Z,10644.00
2023-05-01T11:25:29.651Z,10920.00
2023-05-01T11:26:31.880Z,11500.00
2023-05-01T11:27:29.717Z,11792.00
2023-05-01T11:32:29.938Z,11780.00
2023-05-01T11:33:29.918Z,11860.00
2023-05-01T11:34:29.942Z,11896.00
2023-05-01T11:35:29.973Z,11980.00
2023-05-01T11:36:30.005Z,12084.00
2023-05-01T11:37:30.037Z,12432.00
2023-05-01T11:38:30.072Z,12324.00
2023-05-01T11:39:30.104Z,12516.00
2023-05-01T11:40:30.142Z,12704.00
2023-05-01T11:41:30.172Z,12624.00
2023-05-01T11:42:30.259Z,12484.00
2023-05-01T11:43:30.240Z,12236.00
2023-05-01T11:44:30.261Z,11972.00
2023-05-01T11:45:30.722Z,11128.00
2023-05-01T11:46:30.456Z,11244.00
2023-05-01T11:47:30.391Z,11068.00
2023-05-01T11:48:30.411Z,10504.00
2023-05-01T11:49:31.444Z,10140.00
2023-05-01T11:50:30.459Z,10276.00
2023-05-01T11:51:30.487Z,10056.00
2023-05-01T11:52:30.522Z,10404.00
2023-05-01T11:53:30.560Z,10288.00
2023-05-01T11:54:30.591Z,10176.00
2023-05-01T11:55:30.631Z,10228.00
2023-05-01T11:56:30.656Z,10360.00
2023-05-01T11:57:30.681Z,10416.00
2023-05-01T11:58:30.746Z,10520.00
2023-05-01T11:59:30.782Z,10588.00
2023-05-01T12:00:30.797Z,10364.00
2023-05-01T12:01:30.815Z,10084.00
2023-05-01T12:02:30.954Z,9840.00
2023-05-01T12:03:31.052Z,9688.00
2023-05-01T12:04:32.385Z,9388.00
2023-05-01T12:05:31.371Z,9076.00
2023-05-01T12:07:31.231Z,8908.00
2023-05-01T12:09:31.398Z,9212.00
2023-05-01T12:11:31.358Z,9184.00
2023-05-01T12:15:31.717Z,8212.00
2023-05-01T12:16:31.336Z,7804.00
2023-05-01T12:18:31.591Z,7316.00
2023-05-01T12:19:32.026Z,7168.00
2023-05-01T12:20:31.455Z,7064.00
2023-05-01T12:21:31.690Z,6960.00
2023-05-01T12:22:32.131Z,6868.00
2023-05-01T12:24:31.993Z,6800.00
2023-05-01T12:27:31.880Z,6744.00
2023-05-01T12:29:32.454Z,6736.00
2023-05-01T12:31:32.291Z,6760.00
2023-05-01T12:32:31.917Z,6820.00
2023-05-01T12:34:31.908Z,7076.00
2023-05-01T12:36:32.378Z,7332.00
2023-05-01T12:37:32.220Z,7388.00
2023-05-01T12:39:32.262Z,7504.00
2023-05-01T12:41:32.130Z,7684.00
2023-05-01T12:43:32.622Z,7928.00
2023-05-01T12:44:32.228Z,8016.00
2023-05-01T12:49:32.441Z,8400.00
2023-05-01T12:52:32.480Z,8820.00
2023-05-01T12:54:32.542Z,9360.00
2023-05-01T12:55:32.581Z,9620.00
2023-05-01T12:58:33.394Z,10448.00
2023-05-01T13:03:32.958Z,11224.00
2023-05-01T13:06:32.996Z,11028.00
2023-05-01T13:07:33.971Z,11048.00
2023-05-01T13:11:33.095Z,9660.00
2023-05-01T13:14:33.999Z,8744.00
2023-05-01T13:16:33.543Z,8252.00
2023-05-01T13:19:33.367Z,7712.00
2023-05-01T13:20:33.584Z,7540.00
2023-05-01T13:23:34.795Z,7464.00
2023-05-01T13:24:33.920Z,7396.00
2023-05-01T13:25:33.954Z,7200.00
2023-05-01T13:26:33.888Z,6936.00
2023-05-01T13:27:33.811Z,7068.00
2023-05-01T13:28:33.637Z,7108.00
2023-05-01T13:29:34.079Z,7220.00
2023-05-01T13:30:33.932Z,7272.00
2023-05-01T13:32:33.994Z,7592.00
2023-05-01T13:34:34.143Z,8108.00
2023-05-01T13:35:34.076Z,7896.00
2023-05-01T13:37:34.644Z,8476.00
2023-05-01T13:38:33.963Z,8880.00
2023-05-01T13:40:35.254Z,8252.00
2023-05-01T13:42:35.193Z,8192.00
2023-05-01T13:43:34.124Z,8144.00
2023-05-01T13:45:34.208Z,8344.00
2023-05-01T13:46:34.261Z,8448.00
2023-05-01T13:47:34.275Z,8420.00
2023-05-01T13:48:34.274Z,8392.00
2023-05-01T13:49:34.294Z,8520.00
2023-05-01T13:50:34.325Z,7900.00
2023-05-01T13:51:34.358Z,7616.00
2023-05-01T13:52:34.398Z,7560.00
2023-05-01T13:54:34.453Z,7488.00
2023-05-01T13:55:34.487Z,7484.00
2023-05-01T13:56:34.533Z,7580.00
2023-05-01T13:57:34.561Z,7600.00
2023-05-01T13:58:34.579Z,7344.00
2023-05-01T13:59:34.613Z,7084.00
2023-05-01T14:00:34.794Z,6896.00
2023-05-01T14:02:34.775Z,6456.00
2023-05-01T14:04:34.773Z,5656.00
2023-05-01T14:05:34.821Z,5264.00
2023-05-01T14:06:34.967Z,4932.00
2023-05-01T14:07:34.868Z,4636.00
2023-05-01T14:08:34.900Z,4372.00
2023-05-01T14:09:34.926Z,4104.00
2023-05-01T14:10:34.969Z,3796.00
2023-05-01T14:12:35.750Z,3120.00
2023-05-01T14:14:35.083Z,2544.00
2023-05-01T14:15:35.274Z,2316.00
2023-05-01T14:16:35.162Z,2104.00
2023-05-01T14:17:35.233Z,1932.00
2023-05-01T14:18:35.221Z,1792.00
2023-05-01T14:19:35.243Z,1672.00
2023-05-01T14:20:35.425Z,1540.00
2023-05-01T14:21:35.307Z,1428.00
2023-05-01T14:22:35.331Z,1340.00
2023-05-01T14:23:35.368Z,1256.00
2023-05-01T14:24:35.394Z,1188.00
2023-05-01T14:25:35.437Z,1132.00
2023-05-01T14:26:37.168Z,1088.00
2023-05-01T14:27:35.489Z,1052.00
2023-05-01T14:28:35.546Z,1028.00
2023-05-01T14:29:36.368Z,1008.00
2023-05-01T14:32:35.651Z,964.00
2023-05-01T14:33:35.672Z,952.00
2023-05-01T14:34:35.701Z,936.00
2023-05-01T14:35:35.729Z,936.00
2023-05-01T14:36:35.769Z,948.00
2023-05-01T14:39:36.388Z,948.00
2023-05-01T14:40:35.889Z,936.00
2023-05-01T14:41:35.928Z,916.00
2023-05-01T14:42:35.945Z,892.00
2023-05-01T14:43:35.974Z,872.00
2023-05-01T14:44:36.021Z,848.00
2023-05-01T14:45:36.043Z,828.00
2023-05-01T14:46:36.185Z,820.00
2023-05-01T14:48:36.126Z,820.00
2023-05-01T14:49:36.155Z,820.00
2023-05-01T14:50:36.183Z,824.00
2023-05-01T14:51:36.224Z,820.00
2023-05-01T14:52:36.472Z,824.00
2023-05-01T14:53:36.282Z,828.00
2023-05-01T14:54:36.314Z,840.00
2023-05-01T14:55:37.153Z,864.00
2023-05-01T14:56:36.690Z,900.00
2023-05-01T14:57:36.991Z,944.00
2023-05-01T14:58:36.414Z,996.00
2023-05-01T14:59:36.442Z,1064.00
2023-05-01T15:00:36.490Z,1148.00
2023-05-01T15:01:36.553Z,1244.00
2023-05-01T15:02:36.656Z,1360.00
2023-05-01T15:03:36.607Z,1500.00
2023-05-01T15:04:36.848Z,1652.00
2023-05-01T15:05:36.611Z,1812.00
2023-05-01T15:06:36.701Z,1976.00
2023-05-01T15:07:36.676Z,2140.00
2023-05-01T15:08:36.723Z,2272.00
2023-05-01T15:09:36.725Z,2384.00
2023-05-01T15:10:36.757Z,2460.00
2023-05-01T15:11:36.782Z,2504.00
2023-05-01T15:12:36.817Z,2516.00
2023-05-01T15:13:36.848Z,2508.00
2023-05-01T15:14:36.872Z,2476.00
2023-05-01T15:15:36.910Z,2440.00
2023-05-01T15:16:37.001Z,2416.00
2023-05-01T15:17:36.990Z,2392.00
2023-05-01T15:18:36.995Z,2380.00
2023-05-01T15:19:37.011Z,2380.00
2023-05-01T15:20:37.044Z,2400.00
2023-05-01T15:21:37.067Z,2436.00
2023-05-01T15:22:38.502Z,2480.00
2023-05-01T15:23:37.189Z,2520.00
2023-05-01T15:24:37.154Z,2556.00
2023-05-01T15:25:37.181Z,2580.00
2023-05-01T15:26:37.214Z,2588.00
2023-05-01T15:27:37.236Z,2580.00
2023-05-01T15:28:37.266Z,2544.00
2023-05-01T15:29:37.297Z,2500.00
2023-05-01T15:30:37.324Z,2464.00
2023-05-01T15:31:37.392Z,2428.00
2023-05-01T15:32:37.493Z,2384.00
2023-05-01T15:33:37.495Z,2316.00
2023-05-01T15:34:37.455Z,2240.00
2023-05-01T15:35:37.471Z,2156.00
2023-05-01T15:36:37.503Z,2084.00
2023-05-01T15:37:37.526Z,2016.00
2023-05-01T15:38:37.558Z,1960.00
2023-05-01T15:39:37.589Z,1920.00
2023-05-01T15:40:37.602Z,1888.00
2023-05-01T15:41:37.633Z,1860.00
2023-05-01T15:42:37.674Z,1840.00
2023-05-01T15:43:37.692Z,1824.00
2023-05-01T15:44:37.727Z,1808.00
2023-05-01T15:45:37.795Z,1796.00
2023-05-01T15:46:37.880Z,1792.00
2023-05-01T15:47:37.868Z,1788.00
2023-05-01T15:48:37.853Z,1784.00
2023-05-01T15:49:37.862Z,1784.00
2023-05-01T15:50:37.884Z,1784.00
2023-05-01T15:51:37.913Z,1784.00
2023-05-01T15:52:37.941Z,1772.00
2023-05-01T15:53:37.967Z,1768.00
2023-05-01T15:54:38.002Z,1768.00
2023-05-01T15:55:38.020Z,1764.00
2023-05-01T15:56:38.048Z,1768.00
2023-05-01T15:57:38.077Z,1772.00
2023-05-01T15:58:38.100Z,1784.00
2023-05-01T15:59:38.134Z,1808.00
2023-05-01T16:00:38.160Z,1824.00
2023-05-01T16:01:38.293Z,1840.00
2023-05-01T16:02:38.320Z,1872.00
2023-05-01T16:03:38.493Z,1880.00
2023-05-01T16:04:38.289Z,1884.00
2023-05-01T16:05:38.293Z,1884.00
2023-05-01T16:06:38.425Z,1884.00
2023-05-01T16:07:38.352Z,1892.00
2023-05-01T16:08:38.373Z,1908.00
2023-05-01T16:09:38.417Z,1956.00
2023-05-01T16:10:38.431Z,2012.00
2023-05-01T16:11:38.464Z,2084.00
2023-05-01T16:12:38.541Z,2172.00
2023-05-01T16:13:38.567Z,2260.00
2023-05-01T16:14:38.555Z,2352.00
2023-05-01T16:15:38.574Z,2464.00
2023-05-01T16:16:38.667Z,2604.00
2023-05-01T16:17:38.670Z,2760.00
2023-05-01T16:18:38.656Z,2948.00
2023-05-01T16:19:38.683Z,3136.00
2023-05-01T16:20:38.771Z,3328.00
2023-05-01T16:21:38.738Z,3524.00
2023-05-01T16:22:38.778Z,3752.00
2023-05-01T16:23:38.794Z,4024.00
2023-05-01T16:24:38.843Z,4272.00
2023-05-01T16:25:38.850Z,4424.00
2023-05-01T16:26:38.907Z,4568.00
2023-05-01T16:27:38.905Z,4724.00
2023-05-01T16:28:38.936Z,4836.00
2023-05-01T16:29:38.965Z,4776.00
2023-05-01T16:30:38.988Z,4784.00
2023-05-01T16:31:39.074Z,4684.00
2023-05-01T16:32:39.064Z,4668.00
2023-05-01T16:33:39.071Z,4672.00
2023-05-01T16:34:39.101Z,4640.00
2023-05-01T16:35:39.131Z,4600.00
2023-05-01T16:36:39.187Z,4552.00
2023-05-01T16:37:39.190Z,4540.00
2023-05-01T16:38:39.214Z,4588.00
2023-05-01T16:39:39.243Z,4660.00
2023-05-01T16:40:39.280Z,4772.00
2023-05-01T16:41:39.302Z,4892.00
2023-05-01T16:42:39.327Z,5020.00
2023-05-01T16:43:39.379Z,5120.00
2023-05-01T16:44:39.439Z,5168.00
2023-05-01T16:45:39.415Z,5180.00
2023-05-01T16:46:39.491Z,5180.00
2023-05-01T16:47:39.637Z,5172.00
2023-05-01T16:48:39.499Z,5088.00
2023-05-01T16:49:39.528Z,4908.00